createdAt,value
2022-08-26T00:04:13.530Z,20.38
2022-08-26T00:09:15.925Z,20.27
2022-08-26T00:14:24.177Z,20.24
2022-08-26T00:19:30.041Z,20.10
2022-08-26T00:24:32.672Z,20.13
2022-08-26T00:29:34.784Z,20.03
2022-08-26T00:34:37.085Z,20.04
2022-08-26T00:39:41.030Z,20.07
2022-08-26T00:44:44.954Z,20.00
2022-08-26T00:49:47.691Z,19.99
2022-08-26T00:54:59.715Z,20.00
2022-08-26T01:00:05.648Z,19.92
2022-08-26T01:05:11.371Z,19.79
2022-08-26T01:10:18.027Z,19.78
2022-08-26T01:15:24.174Z,19.83
2022-08-26T01:20:34.459Z,19.77
2022-08-26T01:25:40.595Z,19.76
2022-08-26T01:30:46.739Z,19.70
2022-08-26T01:35:50.198Z,19.71
2022-08-26T01:40:53.747Z,19.66
2022-08-26T01:45:57.018Z,19.61
2022-08-26T01:51:01.099Z,19.61
2022-08-26T01:56:05.145Z,19.54
2022-08-26T02:01:07.702Z,19.53
2022-08-26T02:06:12.440Z,19.51
2022-08-26T02:11:14.630Z,19.60
2022-08-26T02:16:22.398Z,19.52
2022-08-26T02:21:25.432Z,19.60
2022-08-26T02:26:27.287Z,19.52
2022-08-26T02:31:29.487Z,19.57
2022-08-26T02:36:31.104Z,19.50
2022-08-26T02:41:32.924Z,19.55
2022-08-26T02:46:34.812Z,19.56
2022-08-26T02:51:38.731Z,19.51
2022-08-26T02:56:41.818Z,19.48
2022-08-26T03:01:45.220Z,19.48
2022-08-26T03:06:52.950Z,19.48
2022-08-26T03:11:55.513Z,19.47
2022-08-26T03:16:57.206Z,19.62
2022-08-26T03:22:00.541Z,19.46
2022-08-26T03:27:02.136Z,19.47
2022-08-26T03:32:09.791Z,19.42
2022-08-26T03:37:12.172Z,19.42
2022-08-26T03:42:14.939Z,19.49
2022-08-26T03:47:17.442Z,19.47
2022-08-26T03:52:18.962Z,19.41
2022-08-26T03:57:20.759Z,19.43
2022-08-26T04:02:24.974Z,19.54
2022-08-26T04:07:27.204Z,19.49
2022-08-26T04:12:29.546Z,19.53
2022-08-26T04:17:31.298Z,19.52
2022-08-26T04:22:34.435Z,19.46
2022-08-26T04:27:36.127Z,19.48
2022-08-26T04:32:38.629Z,19.57
2022-08-26T04:37:42.688Z,19.55
2022-08-26T04:42:44.709Z,19.63
2022-08-26T04:47:46.865Z,19.54
2022-08-26T04:52:48.554Z,19.62
2022-08-26T04:57:50.102Z,19.68
2022-08-26T05:02:51.832Z,19.66
2022-08-26T05:07:53.370Z,19.73
2022-08-26T05:12:54.885Z,19.80
2022-08-26T05:17:59.189Z,19.86
2022-08-26T05:23:02.627Z,19.91
2022-08-26T05:28:04.695Z,19.85
2022-08-26T05:33:09.250Z,19.89
2022-08-26T05:38:15.756Z,19.96
2022-08-26T05:43:21.096Z,20.02
2022-08-26T05:48:24.384Z,20.11
2022-08-26T05:53:26.313Z,20.08
2022-08-26T05:58:28.358Z,20.29
2022-08-26T06:03:31.658Z,20.20
2022-08-26T06:08:34.529Z,20.16
2022-08-26T06:13:37.362Z,20.01
2022-08-26T06:18:43.761Z,20.12
2022-08-26T06:24:05.595Z,20.06
2022-08-26T06:29:07.996Z,20.16
2022-08-26T06:34:11.007Z,20.15
2022-08-26T06:39:14.444Z,20.06
2022-08-26T06:44:16.359Z,20.21
2022-08-26T06:49:18.367Z,20.40
2022-08-26T06:54:30.344Z,20.55
2022-08-26T06:59:31.912Z,20.69
2022-08-26T07:04:34.004Z,20.99
2022-08-26T07:09:37.457Z,21.06
2022-08-26T07:14:39.419Z,21.18
2022-08-26T07:19:40.933Z,20.96
2022-08-26T07:24:42.801Z,21.10
2022-08-26T07:29:45.674Z,20.95
2022-08-26T07:34:47.268Z,21.18
2022-08-26T07:39:48.875Z,21.27
2022-08-26T07:44:50.803Z,21.24
2022-08-26T07:49:55.145Z,21.29
2022-08-26T07:54:58.162Z,21.36
2022-08-26T08:00:00.657Z,21.56
2022-08-26T08:05:02.320Z,21.59
2022-08-26T08:10:09.628Z,21.30
2022-08-26T08:15:13.871Z,21.08
2022-08-26T08:20:15.423Z,21.53
2022-08-26T08:25:17.680Z,21.71
2022-08-26T08:30:22.790Z,21.44
2022-08-26T08:35:26.438Z,21.25
2022-08-26T08:40:29.322Z,21.33
2022-08-26T08:45:39.079Z,21.39
2022-08-26T08:50:47.873Z,21.56
2022-08-26T08:56:02.871Z,21.39
2022-08-26T09:01:09.843Z,21.64
2022-08-26T09:06:17.386Z,21.59
2022-08-26T09:11:20.782Z,21.66
2022-08-26T09:16:48.126Z,21.43
2022-08-26T09:21:58.183Z,21.84
2022-08-26T09:26:59.754Z,21.97
2022-08-26T09:32:24.228Z,21.82
2022-08-26T09:37:43.644Z,21.96
2022-08-26T09:50:28.810Z,23.12
2022-08-26T09:55:30.911Z,22.67
2022-08-26T10:00:41.386Z,22.96
2022-08-26T10:05:58.441Z,22.92
2022-08-26T10:11:05.563Z,22.44
2022-08-26T10:16:17.663Z,22.79
2022-08-26T10:21:35.618Z,22.71
2022-08-26T10:26:58.973Z,22.59
2022-08-26T10:32:07.047Z,22.85
2022-08-26T10:37:16.739Z,22.92
2022-08-26T10:42:32.412Z,23.00
2022-08-26T10:48:00.022Z,22.35
2022-08-26T10:53:17.141Z,22.44
2022-08-26T10:58:46.399Z,22.46
2022-08-26T11:04:04.591Z,22.78
2022-08-26T11:10:09.047Z,22.50
2022-08-26T11:15:19.773Z,22.32
2022-08-26T11:20:39.124Z,22.27
2022-08-26T11:25:55.890Z,22.10
2022-08-26T11:30:58.651Z,22.05
2022-08-26T11:36:00.581Z,22.53
2022-08-26T11:41:21.312Z,23.02
2022-08-26T11:46:24.401Z,22.82
2022-08-26T11:51:26.216Z,22.56
2022-08-26T11:56:32.458Z,22.23
2022-08-26T12:01:37.749Z,22.09
2022-08-26T12:06:51.333Z,22.17
2022-08-26T12:12:13.200Z,21.92
2022-08-26T12:17:19.456Z,21.86
2022-08-26T12:22:26.090Z,22.12
2022-08-26T12:27:34.102Z,22.31
2022-08-26T12:32:57.175Z,22.19
2022-08-26T12:38:00.025Z,22.25
2022-08-26T12:43:04.939Z,22.19
2022-08-26T12:48:24.574Z,21.85
2022-08-26T12:53:28.900Z,22.01
2022-08-26T12:58:37.058Z,22.16
2022-08-26T13:03:48.390Z,22.33
2022-08-26T13:08:57.179Z,21.90
2022-08-26T13:14:07.586Z,22.35
2022-08-26T13:19:17.016Z,22.45
2022-08-26T13:24:26.052Z,22.32
2022-08-26T13:29:27.803Z,22.37
2022-08-26T13:34:30.894Z,22.10
2022-08-26T13:39:38.142Z,21.78
2022-08-26T13:44:40.714Z,21.90
2022-08-26T13:49:43.778Z,21.82
2022-08-26T13:54:45.626Z,21.56
2022-08-26T13:59:47.465Z,21.39
2022-08-26T14:04:49.129Z,21.39
2022-08-26T14:09:50.747Z,21.22
2022-08-26T14:21:37.875Z,21.18
2022-08-26T14:26:39.816Z,21.17
2022-08-26T14:31:41.882Z,21.31
2022-08-26T14:36:43.559Z,21.35
2022-08-26T14:41:54.706Z,21.03
2022-08-26T14:46:57.857Z,21.05
2022-08-26T14:51:59.668Z,21.15
2022-08-26T14:57:06.046Z,21.09
2022-08-26T15:02:10.606Z,21.24
2022-08-26T15:07:15.562Z,20.86
2022-08-26T15:12:17.231Z,20.89
2022-08-26T15:17:18.929Z,20.87
2022-08-26T15:22:23.091Z,20.94
2022-08-26T15:27:24.789Z,21.14
2022-08-26T15:32:26.383Z,21.11
2022-08-26T15:37:28.121Z,21.28
2022-08-26T15:42:29.806Z,21.20
2022-08-26T15:47:31.531Z,21.23
2022-08-26T15:52:39.292Z,21.29
2022-08-26T15:57:44.079Z,21.15
2022-08-26T16:02:46.540Z,21.13
2022-08-26T16:07:48.775Z,21.14
2022-08-26T16:12:50.938Z,20.98
2022-08-26T16:17:52.642Z,21.05
2022-08-26T16:22:55.129Z,21.05
2022-08-26T16:27:57.880Z,20.86
2022-08-26T16:33:00.659Z,20.77
2022-08-26T16:38:02.532Z,20.57
2022-08-26T16:43:04.670Z,20.47
2022-08-26T16:48:07.304Z,20.31
2022-08-26T16:58:17.133Z,20.08
2022-08-26T17:03:18.742Z,19.96
2022-08-26T17:08:27.423Z,19.89
2022-08-26T17:13:35.439Z,19.88
2022-08-26T17:18:37.999Z,19.83
2022-08-26T17:23:41.615Z,19.79
2022-08-26T17:28:43.107Z,19.83
2022-08-26T17:33:47.749Z,19.72
2022-08-26T17:38:52.491Z,19.62
2022-08-26T17:43:56.118Z,19.58
2022-08-26T17:48:57.645Z,19.69
2022-08-26T17:53:59.199Z,19.66
2022-08-26T17:59:03.582Z,19.62
2022-08-26T18:04:05.969Z,19.61
2022-08-26T18:09:07.694Z,19.60
2022-08-26T18:14:09.358Z,19.35
2022-08-26T18:19:10.864Z,19.32
2022-08-26T18:24:14.208Z,19.25
2022-08-26T18:29:18.135Z,19.28
2022-08-26T18:34:19.942Z,19.20
2022-08-26T18:39:23.532Z,19.21
2022-08-26T18:44:25.425Z,19.05
2022-08-26T18:49:27.190Z,18.99
2022-08-26T18:54:29.295Z,18.98
2022-08-26T18:59:30.925Z,18.98
2022-08-26T19:04:32.594Z,18.87
2022-08-26T19:09:34.739Z,18.86
2022-08-26T19:14:37.596Z,18.85
2022-08-26T19:19:39.126Z,18.75
2022-08-26T19:24:40.709Z,18.68
2022-08-26T19:29:42.274Z,18.73
2022-08-26T19:34:44.556Z,18.61
2022-08-26T19:39:47.394Z,18.58
2022-08-26T19:45:07.543Z,18.58
2022-08-26T19:50:17.558Z,18.53
2022-08-26T19:55:20.777Z,18.53
2022-08-26T20:00:25.423Z,18.55
2022-08-26T20:05:27.388Z,18.43
2022-08-26T20:10:28.977Z,18.41
2022-08-26T20:15:30.483Z,18.44
2022-08-26T20:20:50.362Z,18.42
2022-08-26T20:25:51.868Z,18.33
2022-08-26T20:30:53.856Z,18.32
2022-08-26T20:35:55.441Z,18.21
2022-08-26T20:40:57.077Z,18.31
2022-08-26T20:45:58.738Z,18.16
2022-08-26T20:51:01.199Z,18.09
2022-08-26T20:56:06.053Z,18.11
2022-08-26T21:01:09.050Z,17.98
2022-08-26T21:06:10.832Z,18.00
2022-08-26T21:11:12.561Z,18.02
2022-08-26T21:16:14.314Z,17.98
2022-08-26T21:21:15.932Z,17.97
2022-08-26T21:26:17.616Z,17.98
2022-08-26T21:31:22.169Z,17.85
2022-08-26T21:36:24.452Z,17.80
2022-08-26T21:41:27.327Z,17.73
2022-08-26T21:46:30.120Z,17.79
2022-08-26T21:51:33.615Z,17.81
2022-08-26T21:56:39.799Z,17.66
2022-08-26T22:01:41.645Z,17.66
2022-08-26T22:06:46.321Z,17.70
2022-08-26T22:11:48.340Z,17.68
2022-08-26T22:16:50.458Z,17.60
2022-08-26T22:21:54.878Z,17.55
2022-08-26T22:26:57.007Z,17.59
2022-08-26T22:32:02.962Z,17.54
2022-08-26T22:37:04.798Z,17.60
2022-08-26T22:42:07.181Z,17.53
2022-08-26T22:47:08.771Z,17.53
2022-08-26T22:52:10.436Z,17.48
2022-08-26T22:57:12.021Z,17.47
2022-08-26T23:02:14.057Z,17.40
2022-08-26T23:07:16.146Z,17.41
2022-08-26T23:12:18.999Z,17.38
2022-08-26T23:17:21.522Z,17.36
2022-08-26T23:22:23.123Z,17.31
2022-08-26T23:27:24.855Z,17.26
2022-08-26T23:32:26.637Z,17.34
2022-08-26T23:37:35.864Z,17.32
2022-08-26T23:42:37.990Z,17.25
2022-08-26T23:47:43.999Z,17.24
2022-08-26T23:53:06.425Z,17.19
2022-08-26T23:58:08.516Z,17.21
